Time;durP1;ratioP1;P1;durP2;ratioP2;P2;SDS_P1;SDS_P2;PMS_P1;PMS_P2;Temp;Humidity;BMP_temperature;BMP_pressure;BME280_temperature;BME280_humidity;BME280_pressure;Samples;Min_cycle;Max_cycle;Signal;HPM_P1;HPM_P2
2021/12/30 00:01:06;;;;;;;19.38;13.55;;;7.50;99.90;;;;;;5083003;28;20234;-75
2021/12/30 00:03:34;;;;;;;20.77;12.98;;;7.40;99.90;;;;;;5089699;28;20200;-67
2021/12/30 00:06:02;;;;;;;20.05;12.15;;;7.40;99.90;;;;;;5108393;28;20308;-68
2021/12/30 00:08:30;;;;;;;18.67;12.32;;;7.40;99.90;;;;;;5091769;28;20203;-67
2021/12/30 00:11:00;;;;;;;22.58;13.93;;;7.50;99.90;;;;;;5081722;28;20252;-67
2021/12/30 00:13:28;;;;;;;22.08;14.10;;;7.50;99.90;;;;;;5081782;28;20200;-68
2021/12/30 00:15:56;;;;;;;23.95;13.70;;;7.60;99.90;;;;;;5081422;28;20226;-67
2021/12/30 00:18:25;;;;;;;20.67;14.30;;;7.60;99.90;;;;;;5081906;28;20227;-69
2021/12/30 00:20:53;;;;;;;20.65;13.93;;;7.60;99.90;;;;;;5080055;28;20834;-66
2021/12/30 00:23:21;;;;;;;24.15;13.35;;;7.60;99.90;;;;;;5080487;28;20230;-69
2021/12/30 00:25:49;;;;;;;21.10;13.38;;;7.70;99.90;;;;;;5081097;28;20224;-68
2021/12/30 00:28:21;;;;;;;18.88;12.60;;;7.70;99.90;;;;;;5081207;28;20204;-68
2021/12/30 00:30:51;;;;;;;21.63;13.50;;;7.80;99.90;;;;;;5081040;28;20200;-68
2021/12/30 00:33:20;;;;;;;22.17;13.15;;;7.80;99.90;;;;;;5080276;28;20297;-68
2021/12/30 00:35:52;;;;;;;15.38;12.57;;;7.80;99.90;;;;;;5080905;28;20228;-69
2021/12/30 00:38:20;;;;;;;23.77;12.55;;;7.80;99.90;;;;;;5080590;28;20206;-69
2021/12/30 00:40:48;;;;;;;20.67;12.77;;;7.80;99.90;;;;;;5080467;28;20224;-70
2021/12/30 00:43:17;;;;;;;19.20;12.15;;;7.80;99.90;;;;;;5079896;28;20196;-69
2021/12/30 00:45:45;;;;;;;19.25;12.15;;;7.90;99.90;;;;;;5079771;28;20222;-68
2021/12/30 00:48:13;;;;;;;19.48;12.68;;;8.00;99.90;;;;;;5080425;28;20338;-68
2021/12/30 00:50:43;;;;;;;20.63;12.82;;;7.90;99.90;;;;;;5080451;28;20192;-70
2021/12/30 00:53:11;;;;;;;20.65;14.07;;;8.00;99.90;;;;;;5080093;28;20239;-69
2021/12/30 00:55:40;;;;;;;22.88;15.13;;;8.00;99.90;;;;;;5080305;28;20302;-70
2021/12/30 00:58:10;;;;;;;23.02;15.43;;;8.10;99.90;;;;;;5080171;28;20798;-69
2021/12/30 01:00:42;;;;;;;25.85;14.63;;;8.10;99.90;;;;;;5079146;28;20222;-70
2021/12/30 01:03:11;;;;;;;25.83;16.52;;;8.10;99.90;;;;;;5080097;28;20257;-70
2021/12/30 01:05:39;;;;;;;23.50;15.85;;;8.20;99.90;;;;;;5079402;28;20220;-68
2021/12/30 01:08:08;;;;;;;30.02;17.50;;;8.30;99.90;;;;;;5080520;28;20196;-70
2021/12/30 01:10:37;;;;;;;32.03;17.55;;;8.40;99.90;;;;;;5079826;28;20196;-69
2021/12/30 01:13:08;;;;;;;31.38;18.15;;;8.40;99.90;;;;;;5080703;28;20284;-70
2021/12/30 01:15:49;;;;;;;31.80;19.48;;;8.40;99.90;;;;;;5080090;28;20232;-69
2021/12/30 01:18:29;;;;;;;27.20;17.27;;;8.50;99.90;;;;;;5080915;28;20262;-71
2021/12/30 01:20:58;;;;;;;31.92;20.45;;;8.50;99.90;;;;;;5079514;28;20784;-69
2021/12/30 01:23:27;;;;;;;34.45;19.30;;;8.60;99.90;;;;;;5079529;28;20226;-68
2021/12/30 01:25:56;;;;;;;35.05;20.13;;;8.60;99.90;;;;;;5079742;28;20216;-68
2021/12/30 01:28:25;;;;;;;43.72;21.02;;;8.70;99.90;;;;;;5079779;28;20280;-70
2021/12/30 01:30:55;;;;;;;35.05;19.98;;;8.60;99.90;;;;;;5078985;28;20193;-70
2021/12/30 01:33:27;;;;;;;35.15;20.67;;;8.70;99.90;;;;;;5079284;28;20355;-70
2021/12/30 01:35:55;;;;;;;35.03;19.25;;;8.70;99.90;;;;;;5080226;28;20311;-70
2021/12/30 01:38:23;;;;;;;33.28;20.05;;;8.80;99.90;;;;;;5079814;28;20197;-69
2021/12/30 01:40:54;;;;;;;42.38;22.58;;;8.80;99.90;;;;;;5079944;28;20220;-69
2021/12/30 01:43:22;;;;;;;40.50;20.30;;;8.90;99.90;;;;;;5082614;28;20204;-70
2021/12/30 01:45:51;;;;;;;30.02;19.35;;;8.90;99.90;;;;;;5079697;28;20730;-71
2021/12/30 01:48:20;;;;;;;37.40;20.60;;;8.90;99.90;;;;;;5081398;28;20685;-69
2021/12/30 01:50:49;;;;;;;33.72;18.90;;;8.90;99.90;;;;;;5080827;28;20203;-69
2021/12/30 01:53:17;;;;;;;34.45;19.15;;;8.90;99.90;;;;;;5090430;28;20188;-69
2021/12/30 01:55:46;;;;;;;30.73;18.95;;;9.00;99.90;;;;;;5096545;28;20242;-68
2021/12/30 01:58:15;;;;;;;42.90;21.20;;;9.00;99.90;;;;;;5100122;28;20208;-68
2021/12/30 02:00:47;;;;;;;34.58;21.45;;;9.00;99.90;;;;;;5093180;28;20822;-68
2021/12/30 02:03:16;;;;;;;38.00;20.70;;;8.90;99.90;;;;;;5093589;28;20188;-70
2021/12/30 02:05:45;;;;;;;38.28;18.83;;;9.00;99.90;;;;;;5093868;28;20279;-67
2021/12/30 02:08:15;;;;;;;31.70;19.00;;;8.90;99.90;;;;;;5093690;28;20207;-68
2021/12/30 02:10:45;;;;;;;35.60;19.73;;;8.90;99.90;;;;;;5089284;28;20192;-71
2021/12/30 02:13:15;;;;;;;38.42;18.70;;;8.90;99.90;;;;;;5087563;28;20205;-69
2021/12/30 02:15:43;;;;;;;35.20;17.90;;;8.90;99.90;;;;;;5086377;28;20220;-71
2021/12/30 02:18:11;;;;;;;31.67;17.90;;;8.80;99.90;;;;;;5081116;28;20206;-70
2021/12/30 02:20:47;;;;;;;33.88;18.55;;;8.80;99.90;;;;;;5079661;28;20196;-70
2021/12/30 02:23:18;;;;;;;30.63;17.58;;;8.80;99.90;;;;;;5079655;28;20202;-70
2021/12/30 02:25:46;;;;;;;37.90;19.23;;;8.80;99.90;;;;;;5079461;28;20216;-68
2021/12/30 02:28:16;;;;;;;33.85;18.35;;;8.80;99.90;;;;;;5079270;28;20216;-70
2021/12/30 02:30:44;;;;;;;34.90;18.65;;;8.80;99.90;;;;;;5079035;28;20196;-70
2021/12/30 02:33:13;;;;;;;29.90;16.80;;;8.80;99.90;;;;;;5079659;28;20232;-69
2021/12/30 02:35:43;;;;;;;42.97;17.40;;;8.90;99.90;;;;;;5080532;28;20220;-69
2021/12/30 02:38:11;;;;;;;32.13;16.67;;;9.00;99.90;;;;;;5097005;28;20260;-69
2021/12/30 02:40:42;;;;;;;33.75;15.68;;;9.00;99.90;;;;;;5103071;28;20219;-69
2021/12/30 02:43:13;;;;;;;27.05;15.23;;;9.10;99.90;;;;;;5082388;28;20185;-69
2021/12/30 02:45:41;;;;;;;29.67;15.40;;;9.10;99.90;;;;;;5086022;28;20307;-69
2021/12/30 02:48:14;;;;;;;28.50;14.93;;;9.10;99.90;;;;;;5081788;28;20257;-69
2021/12/30 02:50:44;;;;;;;31.58;14.00;;;9.10;99.90;;;;;;5080898;28;20212;-69
2021/12/30 02:53:13;;;;;;;41.75;14.65;;;9.10;99.90;;;;;;5080371;28;20200;-69
2021/12/30 02:55:41;;;;;;;31.73;13.77;;;9.10;99.90;;;;;;5080676;28;20220;-70
2021/12/30 02:58:09;;;;;;;29.90;12.93;;;9.10;99.90;;;;;;5082638;28;20200;-70
2021/12/30 03:00:39;;;;;;;35.25;15.07;;;9.10;99.90;;;;;;5082993;28;20201;-70
2021/12/30 03:03:07;;;;;;;30.50;13.85;;;9.10;99.90;;;;;;5082885;28;20887;-70
2021/12/30 03:05:35;;;;;;;24.83;12.55;;;9.10;99.90;;;;;;5082943;28;20226;-70
2021/12/30 03:08:05;;;;;;;28.50;14.15;;;9.10;99.90;;;;;;5082146;28;20838;-70
2021/12/30 03:10:33;;;;;;;24.45;11.77;;;9.10;99.90;;;;;;5083110;28;20204;-70
2021/12/30 03:13:06;;;;;;;29.40;13.13;;;9.10;99.90;;;;;;5082321;28;20193;-71
2021/12/30 03:15:33;;;;;;;21.42;11.27;;;9.20;99.90;;;;;;5082679;28;20249;-72
2021/12/30 03:18:02;;;;;;;26.98;11.63;;;9.20;99.90;;;;;;5082623;28;20732;-70
2021/12/30 03:20:32;;;;;;;26.33;10.27;;;9.20;99.90;;;;;;5082563;28;20305;-71
2021/12/30 03:23:01;;;;;;;24.08;11.93;;;9.20;99.90;;;;;;5082011;28;20220;-69
2021/12/30 03:25:30;;;;;;;24.73;9.65;;;9.20;99.90;;;;;;5081657;28;20224;-69
2021/12/30 03:27:59;;;;;;;17.77;9.85;;;9.20;99.90;;;;;;5081858;28;20837;-69
2021/12/30 03:30:27;;;;;;;35.13;10.75;;;9.20;99.90;;;;;;5081759;28;20238;-69
2021/12/30 03:32:55;;;;;;;25.15;8.93;;;9.20;99.90;;;;;;5081802;28;20228;-69
2021/12/30 03:35:23;;;;;;;22.60;9.10;;;9.20;99.90;;;;;;5081772;28;20220;-69
2021/12/30 03:37:50;;;;;;;24.55;10.43;;;9.10;99.90;;;;;;5081587;28;20207;-69
2021/12/30 03:40:18;;;;;;;24.40;9.05;;;9.10;99.90;;;;;;5081851;28;20846;-69
2021/12/30 03:42:47;;;;;;;24.08;9.30;;;9.10;99.90;;;;;;5081517;28;20736;-69
2021/12/30 03:45:16;;;;;;;28.25;8.75;;;9.10;99.90;;;;;;5081051;28;20217;-70
2021/12/30 03:47:48;;;;;;;22.25;9.60;;;9.10;99.90;;;;;;5081256;28;20222;-70
2021/12/30 03:50:20;;;;;;;19.33;9.23;;;9.10;99.90;;;;;;5081042;28;20200;-70
2021/12/30 03:52:50;;;;;;;18.98;7.90;;;9.10;99.90;;;;;;5081560;28;20836;-69
2021/12/30 03:55:20;;;;;;;26.98;9.18;;;9.10;99.90;;;;;;5080831;28;20220;-69
2021/12/30 03:57:51;;;;;;;15.52;7.65;;;9.10;99.90;;;;;;5081247;28;20325;-70
2021/12/30 04:00:21;;;;;;;28.20;8.60;;;8.90;99.90;;;;;;5080884;28;20212;-70
2021/12/30 04:02:49;;;;;;;22.20;8.75;;;8.90;99.90;;;;;;5081142;28;20231;-70
2021/12/30 04:05:17;;;;;;;19.65;7.43;;;8.90;99.90;;;;;;5080480;28;20215;-69
2021/12/30 04:07:46;;;;;;;23.30;7.82;;;8.80;99.90;;;;;;5080253;28;20864;-70
2021/12/30 04:10:15;;;;;;;17.75;7.05;;;8.80;99.90;;;;;;5080796;28;20196;-66
2021/12/30 04:12:45;;;;;;;23.92;9.05;;;8.70;99.90;;;;;;5080098;28;20203;-66
2021/12/30 04:15:14;;;;;;;24.15;8.30;;;8.70;99.90;;;;;;5080562;28;20201;-67
2021/12/30 04:17:43;;;;;;;24.80;8.05;;;8.70;99.90;;;;;;5080698;28;20827;-69
2021/12/30 04:20:14;;;;;;;19.15;7.45;;;8.60;99.90;;;;;;5080679;28;20200;-69
2021/12/30 04:22:42;;;;;;;21.98;7.55;;;8.60;99.90;;;;;;5080628;28;20216;-69
2021/12/30 04:25:14;;;;;;;22.15;7.85;;;8.50;99.90;;;;;;5080513;28;20221;-70
2021/12/30 04:27:43;;;;;;;20.67;7.90;;;8.40;99.90;;;;;;5081365;28;20236;-69
2021/12/30 04:30:14;;;;;;;22.13;7.53;;;8.30;99.90;;;;;;5081530;28;20211;-67
2021/12/30 04:32:46;;;;;;;29.30;7.75;;;8.20;99.90;;;;;;5081218;28;20197;-68
2021/12/30 04:35:14;;;;;;;31.33;7.78;;;8.20;99.90;;;;;;5080849;28;20320;-69
2021/12/30 04:37:42;;;;;;;16.85;7.15;;;8.10;99.90;;;;;;5080888;28;20211;-68
2021/12/30 04:40:12;;;;;;;21.38;9.10;;;8.00;99.90;;;;;;5080069;28;20205;-69
2021/12/30 04:42:41;;;;;;;24.38;8.27;;;7.90;99.90;;;;;;5080847;28;20220;-69
2021/12/30 04:45:10;;;;;;;22.90;7.82;;;7.90;99.90;;;;;;5080489;28;20263;-70
2021/12/30 04:47:41;;;;;;;14.48;7.05;;;7.90;99.90;;;;;;5080238;28;20200;-69
2021/12/30 04:50:11;;;;;;;28.13;7.15;;;7.80;99.90;;;;;;5079984;28;20200;-69
2021/12/30 04:52:39;;;;;;;29.23;7.95;;;7.90;99.90;;;;;;5079859;28;20240;-69
2021/12/30 04:55:07;;;;;;;23.20;7.32;;;7.90;99.90;;;;;;5079593;28;20204;-67
2021/12/30 04:57:35;;;;;;;31.38;9.80;;;7.80;99.90;;;;;;5080078;28;20211;-68
2021/12/30 05:00:06;;;;;;;17.98;7.75;;;7.80;99.90;;;;;;5080011;28;20261;-72
2021/12/30 05:02:49;;;;;;;19.50;7.68;;;7.80;99.90;;;;;;5080862;28;20306;-69
2021/12/30 05:05:19;;;;;;;17.35;7.75;;;7.80;99.90;;;;;;5080287;28;20836;-71
2021/12/30 05:07:47;;;;;;;28.40;7.50;;;7.90;99.90;;;;;;5080950;28;20300;-70
2021/12/30 05:10:14;;;;;;;19.30;8.55;;;7.90;99.90;;;;;;5084846;28;20203;-69
2021/12/30 05:12:42;;;;;;;22.92;9.70;;;8.00;99.90;;;;;;5090501;28;20820;-70
2021/12/30 05:15:10;;;;;;;25.02;8.80;;;8.00;99.90;;;;;;5082153;28;20207;-69
2021/12/30 05:17:39;;;;;;;23.25;8.27;;;8.10;99.90;;;;;;5080158;28;21015;-70
2021/12/30 05:20:08;;;;;;;24.52;8.50;;;8.10;99.90;;;;;;5079716;28;20207;-69
2021/12/30 05:22:38;;;;;;;23.33;8.80;;;8.10;99.90;;;;;;5080405;28;20216;-68
2021/12/30 05:25:06;;;;;;;24.65;9.25;;;8.20;99.90;;;;;;5080034;28;20210;-68
2021/12/30 05:27:35;;;;;;;30.35;11.25;;;8.30;99.90;;;;;;5079737;28;20197;-67
2021/12/30 05:30:04;;;;;;;29.30;10.55;;;8.30;99.90;;;;;;5079926;28;20211;-69
2021/12/30 05:32:32;;;;;;;25.88;8.68;;;8.40;99.90;;;;;;5079276;28;20200;-69
2021/12/30 05:35:00;;;;;;;39.80;10.43;;;8.40;99.90;;;;;;5079214;28;20204;-71
2021/12/30 05:37:28;;;;;;;46.63;11.75;;;8.50;99.90;;;;;;5079872;28;20806;-71
2021/12/30 05:39:57;;;;;;;21.42;9.77;;;8.50;99.90;;;;;;5079465;28;20285;-68
2021/12/30 05:42:25;;;;;;;24.92;10.15;;;8.60;99.90;;;;;;5079127;28;20215;-69
2021/12/30 05:44:54;;;;;;;31.90;11.30;;;8.60;99.90;;;;;;5079735;28;20211;-69
2021/12/30 05:47:22;;;;;;;39.97;11.52;;;8.70;99.90;;;;;;5080384;28;20208;-69
2021/12/30 05:49:50;;;;;;;37.58;12.15;;;8.60;99.90;;;;;;5079595;28;20687;-67
2021/12/30 05:52:18;;;;;;;40.83;13.75;;;8.70;99.90;;;;;;5079657;28;20206;-67
2021/12/30 05:54:46;;;;;;;38.25;13.25;;;8.70;99.90;;;;;;5078967;28;20203;-68
2021/12/30 05:57:19;;;;;;;37.65;13.27;;;8.70;99.90;;;;;;5079569;28;20866;-70
2021/12/30 05:59:47;;;;;;;41.13;13.18;;;8.70;99.90;;;;;;5079179;28;20208;-70
2021/12/30 06:02:15;;;;;;;31.75;12.60;;;8.70;99.90;;;;;;5079130;28;20200;-70
2021/12/30 06:04:43;;;;;;;43.03;14.85;;;8.80;99.90;;;;;;5079436;28;20281;-70
2021/12/30 06:07:11;;;;;;;29.00;12.35;;;8.80;99.90;;;;;;5078930;28;20236;-70
2021/12/30 06:09:39;;;;;;;34.88;11.45;;;8.90;99.90;;;;;;5079348;28;20196;-69
2021/12/30 06:12:08;;;;;;;33.70;12.27;;;8.90;99.90;;;;;;5079717;28;20822;-70
2021/12/30 06:14:37;;;;;;;36.85;11.73;;;9.00;99.90;;;;;;5078395;28;20797;-70
2021/12/30 06:17:05;;;;;;;38.22;11.43;;;9.00;99.90;;;;;;5079003;28;20232;-70
2021/12/30 06:19:33;;;;;;;40.33;11.13;;;9.00;99.90;;;;;;5078978;28;20204;-69
2021/12/30 06:22:00;;;;;;;29.75;11.60;;;9.00;99.90;;;;;;5079258;28;20204;-69
2021/12/30 06:24:28;;;;;;;48.72;13.45;;;9.10;99.90;;;;;;5078929;28;20224;-71
2021/12/30 06:26:57;;;;;;;28.60;10.85;;;9.10;99.90;;;;;;5078897;28;20224;-70
2021/12/30 06:29:25;;;;;;;32.70;11.57;;;9.10;99.90;;;;;;5078408;28;20697;-70
2021/12/30 06:31:54;;;;;;;35.08;11.00;;;9.10;99.90;;;;;;5084488;28;20725;-67
2021/12/30 06:34:23;;;;;;;42.78;13.05;;;9.10;99.90;;;;;;5084559;28;20192;-68
2021/12/30 06:36:50;;;;;;;34.67;12.35;;;9.00;99.90;;;;;;5084567;28;20768;-67
2021/12/30 06:39:18;;;;;;;43.20;13.25;;;9.10;99.90;;;;;;5085308;28;20196;-68
2021/12/30 06:41:47;;;;;;;42.30;12.60;;;9.10;99.90;;;;;;5084493;28;20203;-68
2021/12/30 06:44:15;;;;;;;38.95;13.48;;;9.10;99.90;;;;;;5084941;28;20277;-68
2021/12/30 06:46:51;;;;;;;42.95;12.50;;;9.10;99.90;;;;;;5084720;28;20234;-66
2021/12/30 06:49:21;;;;;;;42.70;12.35;;;9.10;99.90;;;;;;5085451;28;20207;-68
2021/12/30 06:51:49;;;;;;;34.85;11.30;;;9.20;99.90;;;;;;5085413;28;20210;-65
2021/12/30 06:54:17;;;;;;;37.38;12.18;;;9.20;99.90;;;;;;5084562;28;20196;-68
2021/12/30 06:56:46;;;;;;;39.00;13.00;;;9.20;99.90;;;;;;5084810;28;20740;-68
2021/12/30 06:59:15;;;;;;;31.48;12.32;;;9.20;99.90;;;;;;5086395;28;20265;-67
2021/12/30 07:01:44;;;;;;;42.42;14.77;;;9.20;99.90;;;;;;5086411;28;20211;-67
2021/12/30 07:04:12;;;;;;;34.10;11.98;;;9.20;99.90;;;;;;5085577;28;20650;-68
2021/12/30 07:06:42;;;;;;;40.00;14.23;;;9.30;99.90;;;;;;5086111;28;20222;-69
2021/12/30 07:09:10;;;;;;;42.00;13.25;;;9.30;99.90;;;;;;5085031;28;20830;-68
2021/12/30 07:11:38;;;;;;;45.72;14.15;;;9.30;99.90;;;;;;5074326;28;20201;-69
2021/12/30 07:14:05;;;;;;;43.50;14.23;;;9.30;99.90;;;;;;5085521;28;20188;-69
2021/12/30 07:16:33;;;;;;;42.15;13.25;;;9.30;99.90;;;;;;5085966;28;20255;-71
2021/12/30 07:19:01;;;;;;;49.83;15.45;;;9.30;99.90;;;;;;5077149;28;20204;-69
2021/12/30 07:21:29;;;;;;;43.63;15.00;;;9.20;99.90;;;;;;5067027;28;20205;-70
2021/12/30 07:23:58;;;;;;;57.63;17.77;;;9.30;99.90;;;;;;5065228;28;20227;-70
2021/12/30 07:26:26;;;;;;;46.97;17.38;;;9.30;99.90;;;;;;5065278;28;20228;-70
2021/12/30 07:28:54;;;;;;;38.67;15.27;;;9.40;99.90;;;;;;5045058;28;20206;-72
2021/12/30 07:31:22;;;;;;;39.05;15.55;;;9.40;99.90;;;;;;5045228;28;20202;-71
2021/12/30 07:33:50;;;;;;;38.80;16.08;;;9.40;99.90;;;;;;5044455;28;20201;-70
2021/12/30 07:36:17;;;;;;;44.42;16.83;;;9.40;99.90;;;;;;5047372;28;20394;-70
2021/12/30 07:38:45;;;;;;;47.83;17.67;;;9.30;99.90;;;;;;5065675;28;20276;-69
2021/12/30 07:41:15;;;;;;;41.60;16.05;;;9.30;99.90;;;;;;5066083;28;20215;-69
2021/12/30 07:43:43;;;;;;;44.25;15.13;;;9.40;99.90;;;;;;5075740;28;20207;-70
2021/12/30 07:46:11;;;;;;;36.30;14.23;;;9.40;99.90;;;;;;5086533;28;20276;-70
2021/12/30 07:48:39;;;;;;;38.13;14.70;;;9.40;99.90;;;;;;5065059;28;20435;-70
2021/12/30 07:51:08;;;;;;;45.10;16.50;;;9.50;99.90;;;;;;5061581;28;20197;-70
2021/12/30 07:53:37;;;;;;;38.40;14.70;;;9.50;99.90;;;;;;5061259;28;20191;-69
2021/12/30 07:56:05;;;;;;;38.95;14.57;;;9.50;99.90;;;;;;5061574;28;20941;-69
2021/12/30 07:58:35;;;;;;;36.33;15.23;;;9.60;99.90;;;;;;5061453;28;20749;-69
2021/12/30 08:01:03;;;;;;;41.42;16.98;;;9.50;99.90;;;;;;5061155;28;20205;-69
2021/12/30 08:03:31;;;;;;;32.83;14.30;;;9.50;99.90;;;;;;5061264;28;20201;-69
2021/12/30 08:05:59;;;;;;;42.65;15.40;;;9.60;99.90;;;;;;5060619;28;20719;-69
2021/12/30 08:08:27;;;;;;;34.90;15.60;;;9.60;99.90;;;;;;5060588;28;20201;-69
2021/12/30 08:10:55;;;;;;;53.60;18.00;;;9.60;99.90;;;;;;5061146;28;20193;-72
2021/12/30 08:13:23;;;;;;;38.20;13.77;;;9.60;99.90;;;;;;5060538;28;20196;-70
2021/12/30 08:15:53;;;;;;;38.93;16.30;;;9.60;99.90;;;;;;5061489;28;20296;-71
2021/12/30 08:18:20;;;;;;;37.25;15.27;;;9.60;99.90;;;;;;5060833;28;20435;-69
2021/12/30 08:20:48;;;;;;;44.23;14.57;;;9.70;99.90;;;;;;5061070;28;20231;-69
2021/12/30 08:23:16;;;;;;;37.05;16.25;;;9.80;99.90;;;;;;5061265;28;20447;-69
2021/12/30 08:25:49;;;;;;;34.50;15.90;;;9.80;99.90;;;;;;5061365;28;20308;-69
2021/12/30 08:28:17;;;;;;;43.85;16.40;;;9.80;99.90;;;;;;5060855;28;20479;-69
2021/12/30 08:30:46;;;;;;;36.47;14.40;;;9.80;99.90;;;;;;5060499;28;20200;-70
2021/12/30 08:33:15;;;;;;;48.40;18.63;;;9.90;99.90;;;;;;5061690;28;20439;-67
2021/12/30 08:35:43;;;;;;;42.17;17.92;;;10.00;99.90;;;;;;5061287;28;20463;-68
2021/12/30 08:38:12;;;;;;;39.63;17.10;;;10.00;99.90;;;;;;5062003;28;20291;-67
2021/12/30 08:40:40;;;;;;;41.17;17.40;;;10.10;99.90;;;;;;5061727;28;20531;-69
2021/12/30 08:43:10;;;;;;;40.28;17.80;;;10.10;99.90;;;;;;5060358;28;20438;-67
2021/12/30 08:45:38;;;;;;;41.78;16.90;;;10.00;99.90;;;;;;5060175;28;20409;-68
2021/12/30 08:48:07;;;;;;;37.33;17.42;;;10.00;99.90;;;;;;5060227;28;20288;-66
2021/12/30 08:50:37;;;;;;;42.27;17.43;;;10.00;99.90;;;;;;5059927;28;20691;-69
2021/12/30 08:53:05;;;;;;;40.30;17.10;;;10.10;99.90;;;;;;5059841;28;20479;-66
2021/12/30 08:55:33;;;;;;;50.13;17.92;;;10.10;99.90;;;;;;5058908;28;21085;-67
2021/12/30 08:58:01;;;;;;;32.80;16.13;;;10.10;99.90;;;;;;5060422;28;20208;-68
2021/12/30 09:00:31;;;;;;;44.63;16.80;;;10.20;99.90;;;;;;5060380;28;20519;-67
2021/12/30 09:03:04;;;;;;;39.63;16.50;;;10.20;99.90;;;;;;5060288;28;20228;-69
2021/12/30 09:05:32;;;;;;;39.30;18.87;;;10.20;99.90;;;;;;5059416;28;20483;-67
2021/12/30 09:08:02;;;;;;;47.38;17.65;;;10.20;99.90;;;;;;5059917;28;20435;-69
2021/12/30 09:10:34;;;;;;;35.97;17.50;;;10.10;99.90;;;;;;5059509;28;20811;-67
2021/12/30 09:13:03;;;;;;;52.42;20.77;;;10.20;99.90;;;;;;5057044;28;20452;-68
2021/12/30 09:15:31;;;;;;;49.05;20.40;;;10.20;99.90;;;;;;5059392;28;20209;-69
2021/12/30 09:17:59;;;;;;;48.23;19.37;;;10.20;99.90;;;;;;5059614;28;20684;-69
2021/12/30 09:20:27;;;;;;;58.53;21.90;;;10.30;99.90;;;;;;5059393;28;21028;-68
2021/12/30 09:22:57;;;;;;;57.87;21.20;;;10.40;99.90;;;;;;5059267;28;20453;-68
2021/12/30 09:25:26;;;;;;;56.03;20.20;;;10.40;99.90;;;;;;5055466;28;20481;-68
2021/12/30 09:27:55;;;;;;;43.95;19.60;;;10.40;99.90;;;;;;5058587;28;20428;-68
2021/12/30 09:30:25;;;;;;;53.83;21.73;;;10.50;99.90;;;;;;5058401;28;20694;-68
2021/12/30 09:32:56;;;;;;;40.60;20.73;;;10.50;99.90;;;;;;5058788;28;20438;-68
2021/12/30 09:35:25;;;;;;;43.40;19.60;;;10.50;99.90;;;;;;5058203;28;20451;-69
2021/12/30 09:37:53;;;;;;;38.50;19.90;;;10.40;99.90;;;;;;5059012;28;20429;-69
2021/12/30 09:40:22;;;;;;;56.50;20.98;;;10.40;99.90;;;;;;5059174;28;20438;-68
2021/12/30 09:42:55;;;;;;;46.57;20.10;;;10.40;99.90;;;;;;5058484;28;20267;-68
2021/12/30 09:45:27;;;;;;;39.20;18.80;;;10.40;99.90;;;;;;5058536;28;20514;-69
2021/12/30 09:47:57;;;;;;;45.63;21.52;;;10.30;99.90;;;;;;5058678;28;20219;-69
2021/12/30 09:50:28;;;;;;;41.60;19.17;;;10.40;99.90;;;;;;5061059;28;20205;-67
2021/12/30 09:52:57;;;;;;;53.53;21.20;;;10.40;99.90;;;;;;5068382;28;20483;-67
2021/12/30 09:55:29;;;;;;;57.73;22.10;;;10.40;99.90;;;;;;5066811;28;20459;-69
2021/12/30 09:58:00;;;;;;;46.93;21.50;;;10.50;99.90;;;;;;5067700;28;20513;-68
2021/12/30 10:00:29;;;;;;;45.90;22.10;;;10.50;99.90;;;;;;5070959;28;20471;-69
2021/12/30 10:02:57;;;;;;;53.03;22.25;;;10.50;99.90;;;;;;5069622;28;20534;-69
2021/12/30 10:05:27;;;;;;;50.30;21.03;;;10.50;99.90;;;;;;5074709;28;20349;-67
2021/12/30 10:08:12;;;;;;;46.83;21.07;;;10.50;99.90;;;;;;5079875;28;20455;-68
2021/12/30 10:10:42;;;;;;;36.00;20.77;;;10.50;99.90;;;;;;5067333;28;20445;-69
2021/12/30 10:13:21;;;;;;;59.00;22.67;;;10.50;99.90;;;;;;5064893;28;20439;-68
2021/12/30 10:15:57;;;;;;;53.88;20.90;;;10.50;99.90;;;;;;5067202;28;20492;-67
2021/12/30 10:18:26;;;;;;;51.17;22.20;;;10.50;99.90;;;;;;5087744;28;20424;-67
2021/12/30 10:20:54;;;;;;;47.53;22.27;;;10.60;99.90;;;;;;5086478;28;20438;-69
2021/12/30 10:23:25;;;;;;;39.60;18.93;;;10.60;99.90;;;;;;5080700;28;20477;-69
2021/12/30 10:25:54;;;;;;;42.53;19.07;;;10.60;99.90;;;;;;5086978;28;20518;-68
2021/12/30 10:28:28;;;;;;;41.90;20.93;;;10.70;99.90;;;;;;5072226;28;20566;-69
2021/12/30 10:30:58;;;;;;;36.40;19.50;;;10.70;99.90;;;;;;5059521;28;20442;-68
2021/12/30 10:33:28;;;;;;;48.80;21.93;;;10.70;99.90;;;;;;5059177;28;20470;-70
2021/12/30 10:35:56;;;;;;;34.97;19.90;;;10.70;99.90;;;;;;5059290;28;20459;-69
2021/12/30 10:38:29;;;;;;;37.87;17.30;;;10.70;99.90;;;;;;5059045;28;20440;-68
2021/12/30 10:41:01;;;;;;;40.70;17.97;;;10.80;99.90;;;;;;5059400;28;20736;-69
2021/12/30 10:43:35;;;;;;;34.37;17.27;;;10.80;99.90;;;;;;5059327;28;20457;-69
2021/12/30 10:46:16;;;;;;;36.10;17.50;;;10.70;99.90;;;;;;5058214;28;20867;-66
2021/12/30 10:49:05;;;;;;;33.37;17.67;;;10.80;99.90;;;;;;5058049;28;20439;-66
2021/12/30 10:51:40;;;;;;;29.63;16.13;;;10.80;99.90;;;;;;5058637;28;21040;-66
2021/12/30 10:54:18;;;;;;;29.53;16.97;;;10.80;99.90;;;;;;5058138;28;20782;-68
2021/12/30 10:56:48;;;;;;;28.97;16.20;;;10.90;99.90;;;;;;5058211;28;21094;-68
2021/12/30 10:59:24;;;;;;;24.70;15.37;;;11.00;99.90;;;;;;5058058;28;20444;-68
2021/12/30 11:01:56;;;;;;;25.53;15.40;;;11.00;99.90;;;;;;5058612;28;20430;-68
2021/12/30 11:04:37;;;;;;;23.10;13.73;;;11.10;99.90;;;;;;5057735;28;20618;-69
2021/12/30 11:07:06;;;;;;;17.60;13.40;;;11.00;99.90;;;;;;5057258;28;20502;-69
2021/12/30 11:09:34;;;;;;;22.80;12.87;;;11.10;99.90;;;;;;5058390;28;20847;-69
2021/12/30 11:12:05;;;;;;;17.70;11.07;;;11.10;99.90;;;;;;5059247;28;20462;-68
2021/12/30 11:14:40;;;;;;;19.23;10.93;;;11.20;99.90;;;;;;5060604;28;20450;-70
2021/12/30 11:17:15;;;;;;;17.17;10.30;;;11.20;99.90;;;;;;5060070;28;21144;-69
2021/12/30 11:19:50;;;;;;;12.10;7.63;;;11.30;99.90;;;;;;5062673;28;20956;-70
2021/12/30 11:22:22;;;;;;;11.87;7.73;;;11.40;99.90;;;;;;5062914;28;20945;-70
2021/12/30 11:24:55;;;;;;;10.47;7.40;;;11.40;99.90;;;;;;5062279;28;20457;-70
2021/12/30 11:27:25;;;;;;;11.50;7.13;;;11.40;99.90;;;;;;5061790;28;20480;-71
2021/12/30 11:29:56;;;;;;;7.80;6.67;;;11.50;99.90;;;;;;5061875;28;20453;-71
2021/12/30 11:32:27;;;;;;;8.53;6.20;;;11.50;99.90;;;;;;5061418;28;21163;-71
2021/12/30 11:34:56;;;;;;;9.70;6.47;;;11.50;99.90;;;;;;5062138;28;20609;-71
2021/12/30 11:37:25;;;;;;;7.17;5.80;;;11.50;99.90;;;;;;5062380;28;20443;-71
2021/12/30 11:39:55;;;;;;;5.53;5.00;;;11.50;99.90;;;;;;5061340;28;20453;-70
2021/12/30 11:42:27;;;;;;;8.90;5.80;;;11.60;99.90;;;;;;5060606;28;20945;-70
2021/12/30 11:45:02;;;;;;;6.60;5.37;;;11.60;99.90;;;;;;5060364;28;20496;-69
2021/12/30 11:47:39;;;;;;;5.47;4.93;;;11.60;99.90;;;;;;5059172;28;20931;-69
2021/12/30 11:50:13;;;;;;;7.70;5.50;;;11.60;99.90;;;;;;5059975;28;21044;-69
2021/12/30 11:52:50;;;;;;;10.67;5.23;;;11.70;99.90;;;;;;5060448;28;20529;-69
2021/12/30 11:55:41;;;;;;;6.97;5.30;;;11.70;99.90;;;;;;5060634;28;20541;-70
2021/12/30 11:58:41;;;;;;;6.90;5.70;;;11.80;99.90;;;;;;5060738;28;20420;-70
2021/12/30 12:01:32;;;;;;;7.20;5.40;;;11.80;99.90;;;;;;5061140;28;20467;-70
2021/12/30 12:04:03;;;;;;;6.87;5.40;;;11.80;99.90;;;;;;5061113;28;21160;-69
2021/12/30 12:06:40;;;;;;;5.60;4.60;;;11.90;99.90;;;;;;5060971;28;20490;-69
2021/12/30 12:09:12;;;;;;;8.00;5.50;;;12.00;99.90;;;;;;5061146;28;20439;-69
2021/12/30 12:11:50;;;;;;;6.43;5.50;;;12.00;99.90;;;;;;5061424;28;20526;-70
2021/12/30 12:14:20;;;;;;;7.60;5.40;;;12.00;99.90;;;;;;5061032;28;20510;-69
2021/12/30 12:16:53;;;;;;;8.83;4.80;;;12.00;99.90;;;;;;5060332;28;20470;-69
2021/12/30 12:19:32;;;;;;;5.83;5.23;;;11.90;99.90;;;;;;5060549;28;20492;-70
2021/12/30 12:22:02;;;;;;;6.90;4.70;;;12.00;99.90;;;;;;5060930;28;20446;-72
2021/12/30 12:24:33;;;;;;;5.93;4.80;;;12.00;99.90;;;;;;5061934;28;20469;-67
2021/12/30 12:27:04;;;;;;;6.67;4.77;;;12.00;99.90;;;;;;5061258;28;20475;-71
2021/12/30 12:29:34;;;;;;;4.87;4.33;;;11.90;99.90;;;;;;5060726;28;20451;-67
2021/12/30 12:32:10;;;;;;;7.43;4.40;;;11.90;99.90;;;;;;5062817;28;20447;-70
2021/12/30 12:34:40;;;;;;;6.50;4.67;;;12.00;99.90;;;;;;5061289;28;21122;-68
2021/12/30 12:37:41;;;;;;;9.07;4.00;;;12.00;99.90;;;;;;5060979;28;20455;-69
2021/12/30 12:40:11;;;;;;;4.10;3.50;;;12.10;99.90;;;;;;5060440;28;21179;-68
2021/12/30 12:42:56;;;;;;;4.37;3.90;;;12.10;99.90;;;;;;5061964;28;21090;-68
2021/12/30 12:45:26;;;;;;;5.10;3.70;;;12.20;99.90;;;;;;5063521;28;20998;-67
2021/12/30 12:48:27;;;;;;;3.97;3.63;;;12.20;99.90;;;;;;5066685;28;20487;-67
2021/12/30 12:50:57;;;;;;;3.40;3.20;;;12.20;99.90;;;;;;5034710;28;20443;-67
2021/12/30 12:53:41;;;;;;;3.53;3.23;;;12.30;99.90;;;;;;5079117;28;20892;-69